Time;durP1;ratioP1;P1;durP2;ratioP2;P2;SDS_P1;SDS_P2;PMS_P1;PMS_P2;Temp;Humidity;BMP_temperature;BMP_pressure;BME280_temperature;BME280_humidity;BME280_pressure;Samples;Min_cycle;Max_cycle;Signal;HPM_P1;HPM_P2
2022/10/22 00:01:26;;;;;;;56.92;19.08;;;;;;;;;;6305840;22;20006;-80
2022/10/22 00:04:00;;;;;;;39.60;19.13;;;;;;;;;;6254737;22;20006;-79
2022/10/22 00:06:29;;;;;;;49.90;19.77;;;;;;;;;;6229640;22;20010;-81
2022/10/22 00:09:06;;;;;;;46.20;20.10;;;;;;;;;;6257161;22;19999;-79
2022/10/22 00:14:19;;;;;;;41.90;19.73;;;;;;;;;;6212773;22;20388;-80
2022/10/22 00:16:50;;;;;;;39.13;18.85;;;;;;;;;;6228673;22;20012;-80
2022/10/22 00:19:44;;;;;;;47.45;18.77;;;;;;;;;;6279385;22;20003;-80
2022/10/22 00:22:11;;;;;;;43.67;18.92;;;;;;;;;;6202199;22;20003;-80
2022/10/22 00:24:51;;;;;;;51.60;18.40;;;;;;;;;;6251797;22;19999;-80
2022/10/22 00:28:04;;;;;;;54.05;23.20;;;;;;;;;;6278287;22;20430;-80
2022/10/22 00:33:53;;;;;;;46.65;19.35;;;;;;;;;;6307153;22;20091;-80
2022/10/22 00:36:51;;;;;;;43.97;19.27;;;;;;;;;;6230136;22;20063;-80
2022/10/22 00:39:17;;;;;;;58.17;20.58;;;;;;;;;;6264933;22;20007;-79
2022/10/22 00:41:44;;;;;;;85.65;39.63;;;;;;;;;;6252946;22;20090;-81
2022/10/22 00:44:47;;;;;;;87.82;39.05;;;;;;;;;;6277945;22;20029;-80
2022/10/22 00:47:24;;;;;;;70.50;32.65;;;;;;;;;;6305886;22;20074;-79
2022/10/22 00:49:59;;;;;;;51.08;22.50;;;;;;;;;;6255493;22;20007;-80
2022/10/22 00:52:32;;;;;;;54.10;24.08;;;;;;;;;;6253089;22;20003;-80
2022/10/22 00:55:44;;;;;;;47.03;21.95;;;;;;;;;;6226496;22;20007;-80
2022/10/22 00:58:13;;;;;;;42.75;20.02;;;;;;;;;;6280397;22;20000;-80
2022/10/22 01:00:38;;;;;;;45.38;20.52;;;;;;;;;;6306442;22;20003;-79
2022/10/22 01:03:33;;;;;;;47.65;20.85;;;;;;;;;;6277807;22;20074;-80
2022/10/22 01:06:02;;;;;;;55.28;21.33;;;;;;;;;;6252279;22;20105;-80
2022/10/22 01:08:28;;;;;;;48.83;22.88;;;;;;;;;;6254022;22;20009;-80
2022/10/22 01:11:31;;;;;;;45.72;21.05;;;;;;;;;;6286071;22;20375;-79
2022/10/22 01:14:34;;;;;;;46.47;19.80;;;;;;;;;;6278913;22;20011;-79
2022/10/22 01:17:03;;;;;;;44.22;19.50;;;;;;;;;;6276832;22;20038;-80
2022/10/22 01:19:31;;;;;;;44.38;20.27;;;;;;;;;;6277916;22;20011;-80
2022/10/22 01:22:07;;;;;;;51.88;21.70;;;;;;;;;;6277918;22;20010;-80
2022/10/22 01:24:56;;;;;;;38.47;19.65;;;;;;;;;;6228513;22;20015;-78
2022/10/22 01:27:28;;;;;;;46.15;19.85;;;;;;;;;;6283943;22;20045;-80
2022/10/22 01:30:20;;;;;;;53.40;20.83;;;;;;;;;;6310259;22;20424;-80
2022/10/22 01:32:54;;;;;;;48.50;21.13;;;;;;;;;;6283227;22;19999;-80
2022/10/22 01:35:40;;;;;;;49.15;21.55;;;;;;;;;;6230090;22;20003;-80
2022/10/22 01:38:09;;;;;;;71.35;27.75;;;;;;;;;;6254596;22;20003;-79
2022/10/22 01:40:35;;;;;;;47.15;21.92;;;;;;;;;;6228243;22;20064;-81
2022/10/22 01:43:05;;;;;;;55.67;23.17;;;;;;;;;;6279303;22;20003;-79
2022/10/22 01:46:27;;;;;;;47.23;20.90;;;;;;;;;;6255581;22;20004;-79
2022/10/22 01:49:14;;;;;;;48.97;20.02;;;;;;;;;;6105069;23;20029;-80
2022/10/22 01:52:23;;;;;;;44.88;19.92;;;;;;;;;;6154442;23;20084;-80
2022/10/22 01:54:55;;;;;;;50.75;19.52;;;;;;;;;;6218762;22;20346;-80
2022/10/22 01:58:02;;;;;;;35.97;18.75;;;;;;;;;;6230445;22;20005;-80
2022/10/22 02:00:27;;;;;;;46.58;20.38;;;;;;;;;;6307211;22;20010;-80
2022/10/22 02:03:08;;;;;;;41.83;18.00;;;;;;;;;;6228802;22;20034;-80
2022/10/22 02:08:31;;;;;;;41.58;18.02;;;;;;;;;;6254767;22;20026;-79
2022/10/22 02:11:28;;;;;;;40.30;18.92;;;;;;;;;;6228666;22;20000;-80
2022/10/22 02:14:00;;;;;;;39.08;18.52;;;;;;;;;;6204144;22;20066;-79
2022/10/22 02:16:44;;;;;;;43.75;18.10;;;;;;;;;;6225042;22;20003;-80
2022/10/22 02:19:39;;;;;;;42.95;19.40;;;;;;;;;;6248953;22;19996;-79
2022/10/22 02:22:35;;;;;;;45.72;20.42;;;;;;;;;;6248703;22;20004;-80
2022/10/22 02:25:13;;;;;;;43.15;18.80;;;;;;;;;;6246664;22;20030;-80
2022/10/22 02:28:02;;;;;;;42.17;19.02;;;;;;;;;;6202216;22;20038;-80
2022/10/22 02:30:28;;;;;;;38.30;18.77;;;;;;;;;;6223458;22;20008;-80
2022/10/22 02:33:04;;;;;;;35.17;17.20;;;;;;;;;;6224827;22;20038;-80
2022/10/22 02:35:35;;;;;;;47.30;18.63;;;;;;;;;;6223803;22;20023;-80
2022/10/22 02:38:13;;;;;;;47.58;19.05;;;;;;;;;;6248737;22;19996;-80
2022/10/22 02:40:39;;;;;;;48.97;17.92;;;;;;;;;;6223164;22;20004;-80
2022/10/22 02:43:12;;;;;;;38.45;18.75;;;;;;;;;;6223651;22;20022;-80
2022/10/22 02:45:38;;;;;;;35.33;18.30;;;;;;;;;;6249112;22;20422;-80
2022/10/22 02:48:06;;;;;;;33.88;18.05;;;;;;;;;;6276374;22;20071;-81
2022/10/22 02:50:40;;;;;;;37.95;18.27;;;;;;;;;;6224015;22;20014;-80
2022/10/22 02:53:13;;;;;;;38.63;17.05;;;;;;;;;;6200612;22;19999;-79
2022/10/22 02:55:41;;;;;;;37.55;17.25;;;;;;;;;;6225799;22;20007;-80
2022/10/22 02:58:06;;;;;;;34.17;17.58;;;;;;;;;;6223983;22;20054;-80
2022/10/22 03:00:32;;;;;;;38.22;16.88;;;;;;;;;;6275673;22;20088;-80
2022/10/22 03:02:57;;;;;;;37.75;18.35;;;;;;;;;;6248654;22;19996;-80
2022/10/22 03:05:25;;;;;;;41.88;18.33;;;;;;;;;;6275592;22;20030;-80
2022/10/22 03:07:51;;;;;;;37.25;18.73;;;;;;;;;;6249213;22;20423;-81
2022/10/22 03:10:16;;;;;;;39.28;19.33;;;;;;;;;;6278986;22;20004;-80
2022/10/22 03:12:42;;;;;;;44.53;19.50;;;;;;;;;;6313359;22;19999;-79
2022/10/22 03:15:11;;;;;;;39.88;18.40;;;;;;;;;;6307166;22;20014;-79
2022/10/22 03:17:36;;;;;;;41.58;19.70;;;;;;;;;;6280519;22;20414;-80
2022/10/22 03:20:02;;;;;;;43.80;19.40;;;;;;;;;;6279475;22;20003;-80
2022/10/22 03:22:28;;;;;;;43.08;18.00;;;;;;;;;;6306532;22;20006;-80
2022/10/22 03:24:57;;;;;;;42.53;18.45;;;;;;;;;;6228451;22;20003;-80
2022/10/22 03:27:22;;;;;;;39.42;19.50;;;;;;;;;;6280253;22;20418;-80
2022/10/22 03:29:57;;;;;;;46.65;19.15;;;;;;;;;;6253389;22;20014;-80
2022/10/22 03:32:22;;;;;;;40.80;19.00;;;;;;;;;;6262552;22;19999;-80
2022/10/22 03:34:47;;;;;;;46.50;19.63;;;;;;;;;;6307093;22;20011;-80
2022/10/22 03:39:48;;;;;;;43.25;18.40;;;;;;;;;;6217636;22;21135;-76
2022/10/22 03:42:15;;;;;;;41.33;20.27;;;;;;;;;;6249074;22;20071;-78
2022/10/22 03:44:40;;;;;;;41.15;20.00;;;;;;;;;;6223121;22;20014;-77
2022/10/22 03:47:06;;;;;;;44.58;19.05;;;;;;;;;;6248305;22;20011;-77
2022/10/22 03:49:31;;;;;;;42.10;20.67;;;;;;;;;;6248130;22;20030;-77
2022/10/22 03:51:57;;;;;;;39.10;20.75;;;;;;;;;;6275036;22;20035;-76
2022/10/22 03:54:22;;;;;;;44.33;20.75;;;;;;;;;;6275010;22;20415;-77
2022/10/22 03:56:48;;;;;;;43.95;21.15;;;;;;;;;;6248481;22;20390;-77
2022/10/22 03:59:13;;;;;;;46.47;21.35;;;;;;;;;;6248655;22;19996;-76
2022/10/22 04:01:39;;;;;;;45.60;21.13;;;;;;;;;;6275226;22;20330;-77
2022/10/22 04:04:04;;;;;;;43.15;21.27;;;;;;;;;;6248085;22;20003;-76
2022/10/22 04:06:30;;;;;;;41.03;21.17;;;;;;;;;;6247579;22;20016;-76
2022/10/22 04:08:55;;;;;;;45.50;21.38;;;;;;;;;;6248514;22;20004;-77
2022/10/22 04:11:21;;;;;;;42.30;22.33;;;;;;;;;;6274792;22;20006;-77
2022/10/22 04:13:46;;;;;;;42.38;21.25;;;;;;;;;;6247614;22;20026;-76
2022/10/22 04:16:17;;;;;;;41.97;21.38;;;;;;;;;;6222668;22;20003;-77
2022/10/22 04:18:42;;;;;;;44.88;21.52;;;;;;;;;;6274453;22;19996;-76
2022/10/22 04:21:09;;;;;;;40.17;20.13;;;;;;;;;;6222824;22;20014;-76
2022/10/22 04:23:35;;;;;;;44.38;21.13;;;;;;;;;;6275161;22;20016;-78
2022/10/22 04:26:02;;;;;;;43.70;21.20;;;;;;;;;;6274675;22;20003;-78
2022/10/22 04:28:27;;;;;;;42.78;21.08;;;;;;;;;;6223300;22;20311;-76
2022/10/22 04:30:53;;;;;;;42.60;20.98;;;;;;;;;;6247692;22;20026;-76
2022/10/22 04:33:18;;;;;;;46.08;20.52;;;;;;;;;;6274375;22;20319;-76
2022/10/22 04:35:44;;;;;;;42.05;20.95;;;;;;;;;;6274914;22;20510;-76
2022/10/22 04:38:09;;;;;;;44.20;20.65;;;;;;;;;;6247808;22;20031;-75
2022/10/22 04:40:35;;;;;;;43.47;21.30;;;;;;;;;;6285258;22;20026;-76
2022/10/22 04:43:00;;;;;;;37.92;20.17;;;;;;;;;;6305929;22;20035;-76
2022/10/22 04:45:26;;;;;;;38.72;20.85;;;;;;;;;;6305412;22;20078;-78
2022/10/22 04:47:51;;;;;;;44.45;20.42;;;;;;;;;;6277989;22;20056;-78
2022/10/22 04:50:17;;;;;;;43.85;20.05;;;;;;;;;;6278409;22;19999;-76
2022/10/22 04:52:42;;;;;;;48.78;20.77;;;;;;;;;;6279044;22;20365;-77
2022/10/22 04:55:08;;;;;;;50.55;20.58;;;;;;;;;;6278408;22;20002;-75
2022/10/22 04:57:33;;;;;;;43.72;20.33;;;;;;;;;;6305516;22;20052;-77
2022/10/22 04:59:59;;;;;;;50.28;21.85;;;;;;;;;;6278624;22;20351;-77
2022/10/22 05:02:27;;;;;;;48.90;20.85;;;;;;;;;;6278455;22;20036;-77
2022/10/22 05:04:53;;;;;;;39.63;20.50;;;;;;;;;;6278035;22;20009;-77
2022/10/22 05:07:18;;;;;;;44.63;19.88;;;;;;;;;;6305311;22;20077;-77
2022/10/22 05:09:44;;;;;;;52.33;21.73;;;;;;;;;;6306157;22;20469;-77
2022/10/22 05:12:09;;;;;;;43.95;21.20;;;;;;;;;;6278560;22;20060;-75
2022/10/22 05:14:35;;;;;;;40.10;21.50;;;;;;;;;;6278011;22;20007;-77
2022/10/22 05:17:04;;;;;;;49.15;21.92;;;;;;;;;;6305081;22;20005;-77
2022/10/22 05:19:29;;;;;;;67.00;30.77;;;;;;;;;;6307023;22;20003;-78
2022/10/22 05:22:00;;;;;;;87.85;43.05;;;;;;;;;;6307293;22;20066;-77
2022/10/22 05:24:26;;;;;;;;;;;;;;;;;;6307723;22;19999;-78
2022/10/22 05:26:52;;;;;;;51.15;23.17;;;;;;;;;;6307409;22;19914;-77
2022/10/22 05:29:17;;;;;;;63.70;24.83;;;;;;;;;;6280220;22;20125;-76
2022/10/22 05:31:42;;;;;;;52.58;24.35;;;;;;;;;;6307502;22;20003;-76
2022/10/22 05:34:08;;;;;;;49.17;22.40;;;;;;;;;;6307713;22;20083;-77
2022/10/22 05:36:33;;;;;;;48.13;22.67;;;;;;;;;;6308161;22;20426;-77
2022/10/22 05:38:59;;;;;;;49.75;22.52;;;;;;;;;;6280784;22;20463;-77
2022/10/22 05:41:25;;;;;;;48.58;22.55;;;;;;;;;;6307630;22;20061;-76
2022/10/22 05:43:53;;;;;;;49.90;22.83;;;;;;;;;;6280200;22;20003;-75
2022/10/22 05:46:20;;;;;;;47.90;21.65;;;;;;;;;;6306710;22;20089;-75
2022/10/22 05:48:53;;;;;;;48.15;21.77;;;;;;;;;;6280265;22;19999;-77
2022/10/22 05:51:19;;;;;;;45.63;20.80;;;;;;;;;;6307484;22;20003;-77
2022/10/22 05:53:45;;;;;;;42.80;20.35;;;;;;;;;;6306935;22;19999;-77
2022/10/22 05:56:15;;;;;;;43.05;20.00;;;;;;;;;;6307441;22;20007;-76
2022/10/22 05:58:41;;;;;;;39.83;19.38;;;;;;;;;;6254119;22;19999;-76
2022/10/22 06:01:22;;;;;;;44.65;19.50;;;;;;;;;;6305836;22;20003;-74
2022/10/22 06:03:48;;;;;;;43.35;20.08;;;;;;;;;;6309527;22;19999;-77
2022/10/22 06:06:20;;;;;;;40.22;20.02;;;;;;;;;;6277881;22;20011;-77
2022/10/22 06:08:49;;;;;;;42.03;20.98;;;;;;;;;;6276964;22;20003;-77
2022/10/22 06:11:16;;;;;;;46.08;20.45;;;;;;;;;;6252269;22;20067;-76
2022/10/22 06:13:43;;;;;;;40.80;20.63;;;;;;;;;;6253305;22;20126;-76
2022/10/22 06:16:09;;;;;;;52.95;19.85;;;;;;;;;;6278135;22;20007;-77
2022/10/22 06:18:34;;;;;;;51.25;19.63;;;;;;;;;;6306305;22;20114;-78
2022/10/22 06:21:06;;;;;;;37.33;18.23;;;;;;;;;;6278164;22;20004;-77
2022/10/22 06:23:32;;;;;;;47.58;19.45;;;;;;;;;;6253054;22;20025;-77
2022/10/22 06:25:58;;;;;;;39.28;18.80;;;;;;;;;;6305265;22;20025;-77
2022/10/22 06:28:25;;;;;;;52.10;21.88;;;;;;;;;;6304907;22;20000;-78
2022/10/22 06:30:51;;;;;;;53.60;21.63;;;;;;;;;;6226624;22;20046;-77
2022/10/22 06:33:16;;;;;;;54.42;22.05;;;;;;;;;;6277011;22;20011;-77
2022/10/22 06:35:44;;;;;;;55.08;22.30;;;;;;;;;;6305701;22;20003;-77
2022/10/22 06:38:16;;;;;;;57.85;24.30;;;;;;;;;;6304551;22;20026;-75
2022/10/22 06:40:44;;;;;;;53.97;23.38;;;;;;;;;;6277003;22;20018;-77
2022/10/22 06:43:10;;;;;;;56.28;23.08;;;;;;;;;;6272755;22;20007;-77
2022/10/22 06:45:36;;;;;;;53.13;22.63;;;;;;;;;;6296729;22;20006;-77
2022/10/22 06:48:05;;;;;;;52.20;25.48;;;;;;;;;;6266392;22;20361;-77
2022/10/22 06:50:32;;;;;;;58.17;24.58;;;;;;;;;;6268570;22;20014;-77
2022/10/22 06:52:58;;;;;;;54.45;22.13;;;;;;;;;;6269733;22;20007;-77
2022/10/22 06:55:23;;;;;;;55.88;22.33;;;;;;;;;;6297320;22;20082;-77
2022/10/22 06:57:48;;;;;;;58.58;23.60;;;;;;;;;;6296044;22;20008;-78
2022/10/22 07:00:14;;;;;;;51.95;23.65;;;;;;;;;;6295702;22;20243;-78
2022/10/22 07:02:42;;;;;;;62.40;25.63;;;;;;;;;;6246191;22;20010;-77
2022/10/22 07:05:08;;;;;;;60.80;27.27;;;;;;;;;;6270524;22;20109;-77
2022/10/22 07:07:33;;;;;;;60.70;26.92;;;;;;;;;;6297143;22;20003;-77
2022/10/22 07:09:59;;;;;;;58.75;25.67;;;;;;;;;;6297247;22;20025;-76
2022/10/22 07:12:25;;;;;;;71.90;28.08;;;;;;;;;;6273114;22;20007;-77
2022/10/22 07:14:50;;;;;;;59.47;27.33;;;;;;;;;;6300415;22;19999;-78
2022/10/22 07:17:16;;;;;;;59.45;25.85;;;;;;;;;;6300274;22;20045;-78
2022/10/22 07:19:41;;;;;;;58.53;23.17;;;;;;;;;;6274613;22;20060;-76
2022/10/22 07:22:06;;;;;;;46.80;22.48;;;;;;;;;;6275878;22;20061;-77
2022/10/22 07:24:32;;;;;;;53.75;21.38;;;;;;;;;;6304073;22;20056;-77
2022/10/22 07:26:58;;;;;;;41.25;21.67;;;;;;;;;;6277589;22;20007;-78
2022/10/22 07:29:23;;;;;;;41.78;21.33;;;;;;;;;;6305842;22;20470;-78
2022/10/22 07:31:48;;;;;;;42.42;21.27;;;;;;;;;;6278677;22;20026;-77
2022/10/22 07:34:14;;;;;;;52.45;20.50;;;;;;;;;;6253183;22;20007;-77
2022/10/22 07:36:39;;;;;;;44.33;20.77;;;;;;;;;;6277821;22;20003;-78
2022/10/22 07:39:05;;;;;;;46.22;21.25;;;;;;;;;;6252960;22;20437;-77
2022/10/22 07:41:30;;;;;;;34.38;18.95;;;;;;;;;;6304746;22;20067;-78
2022/10/22 07:43:56;;;;;;;40.42;17.10;;;;;;;;;;6304624;22;20010;-78
2022/10/22 07:46:22;;;;;;;31.58;17.85;;;;;;;;;;6305644;22;20013;-77
2022/10/22 07:48:47;;;;;;;45.08;18.95;;;;;;;;;;6252661;22;20031;-78
2022/10/22 07:51:13;;;;;;;41.80;19.33;;;;;;;;;;6305538;22;20037;-78
2022/10/22 07:53:38;;;;;;;36.50;19.05;;;;;;;;;;6305514;22;20010;-77
2022/10/22 07:56:05;;;;;;;37.88;19.25;;;;;;;;;;6278124;22;19999;-76
2022/10/22 07:58:30;;;;;;;37.50;19.75;;;;;;;;;;6276474;22;20383;-78
2022/10/22 08:00:57;;;;;;;35.38;17.67;;;;;;;;;;6303462;22;20011;-77
2022/10/22 08:03:22;;;;;;;35.13;18.95;;;;;;;;;;6302532;22;20010;-78
2022/10/22 08:05:48;;;;;;;40.08;17.63;;;;;;;;;;6303758;22;20003;-77
2022/10/22 08:08:14;;;;;;;48.25;18.67;;;;;;;;;;6303563;22;20358;-78
2022/10/22 08:10:40;;;;;;;33.63;16.65;;;;;;;;;;6250475;22;20341;-76
2022/10/22 08:13:05;;;;;;;35.95;16.13;;;;;;;;;;6304466;22;20027;-76
2022/10/22 08:15:31;;;;;;;43.28;19.23;;;;;;;;;;6275517;22;20007;-77
2022/10/22 08:17:56;;;;;;;39.38;17.67;;;;;;;;;;6301896;22;20003;-77
2022/10/22 08:20:22;;;;;;;42.03;18.50;;;;;;;;;;6301353;22;20380;-76
2022/10/22 08:22:48;;;;;;;35.72;18.70;;;;;;;;;;6301499;22;20349;-75
2022/10/22 08:25:14;;;;;;;41.03;18.80;;;;;;;;;;6299951;22;19999;-76
2022/10/22 08:27:40;;;;;;;37.53;18.20;;;;;;;;;;6271498;22;20088;-76
2022/10/22 08:30:06;;;;;;;45.88;19.10;;;;;;;;;;6245770;22;20357;-76
2022/10/22 08:32:37;;;;;;;35.88;17.83;;;;;;;;;;6273331;22;20029;-77
2022/10/22 08:35:03;;;;;;;40.08;18.02;;;;;;;;;;6302299;22;20018;-77
2022/10/22 08:37:28;;;;;;;35.60;17.55;;;;;;;;;;6275153;22;20396;-76
2022/10/22 08:39:53;;;;;;;46.17;18.40;;;;;;;;;;6301912;22;20448;-78
2022/10/22 08:42:33;;;;;;;35.92;17.48;;;;;;;;;;6304414;22;20095;-76
2022/10/22 08:45:16;;;;;;;48.73;18.00;;;;;;;;;;6250264;22;20022;-78
2022/10/22 08:47:52;;;;;;;38.72;18.38;;;;;;;;;;6277011;22;20085;-76
2022/10/22 08:50:22;;;;;;;39.47;19.65;;;;;;;;;;6273526;22;20074;-77
2022/10/22 08:52:50;;;;;;;46.22;18.63;;;;;;;;;;6249882;22;20392;-77
2022/10/22 08:55:15;;;;;;;38.85;20.65;;;;;;;;;;6250445;22;20414;-76
2022/10/22 08:57:50;;;;;;;39.33;20.20;;;;;;;;;;6250841;22;20029;-77
2022/10/22 09:00:36;;;;;;;55.80;20.40;;;;;;;;;;6249159;22;20010;-75
2022/10/22 09:03:22;;;;;;;48.65;21.90;;;;;;;;;;6249738;22;20014;-78
2022/10/22 09:05:54;;;;;;;56.33;25.00;;;;;;;;;;6303523;22;20011;-78
2022/10/22 09:08:19;;;;;;;48.75;25.58;;;;;;;;;;6303949;22;20003;-78
2022/10/22 09:10:47;;;;;;;56.60;26.50;;;;;;;;;;6276519;22;20452;-78
2022/10/22 09:13:17;;;;;;;48.85;23.90;;;;;;;;;;6251290;22;20003;-78
2022/10/22 09:15:45;;;;;;;61.35;26.35;;;;;;;;;;6277302;22;20457;-76
2022/10/22 09:18:10;;;;;;;60.25;27.23;;;;;;;;;;6277663;22;20341;-75
2022/10/22 09:21:21;;;;;;;58.20;25.88;;;;;;;;;;6303939;22;20031;-78
2022/10/22 09:24:19;;;;;;;49.55;24.42;;;;;;;;;;6258422;22;20511;-80
2022/10/22 09:26:45;;;;;;;61.35;27.38;;;;;;;;;;6231961;22;20007;-75
2022/10/22 09:29:18;;;;;;;51.00;22.90;;;;;;;;;;6251318;22;20037;-77
2022/10/22 09:31:44;;;;;;;59.25;23.77;;;;;;;;;;6301850;22;20014;-77
2022/10/22 09:34:13;;;;;;;47.80;21.85;;;;;;;;;;6306918;22;19999;-78
2022/10/22 09:36:39;;;;;;;47.65;21.63;;;;;;;;;;6279971;22;20004;-76
2022/10/22 09:39:04;;;;;;;40.22;18.95;;;;;;;;;;6304246;22;20006;-77
2022/10/22 09:41:30;;;;;;;38.90;18.20;;;;;;;;;;6223419;22;20069;-78
2022/10/22 09:43:56;;;;;;;42.35;18.33;;;;;;;;;;6272450;22;20027;-77
2022/10/22 09:46:24;;;;;;;51.17;20.45;;;;;;;;;;6269725;22;20003;-76
2022/10/22 09:48:59;;;;;;;44.53;20.70;;;;;;;;;;6269121;22;20003;-77
2022/10/22 09:51:55;;;;;;;50.30;23.63;;;;;;;;;;6243136;22;19996;-77
2022/10/22 09:54:23;;;;;;;55.45;23.92;;;;;;;;;;6269944;22;20385;-77
2022/10/22 09:57:02;;;;;;;48.50;23.85;;;;;;;;;;6271297;22;20339;-77
2022/10/22 09:59:32;;;;;;;65.18;25.50;;;;;;;;;;6270327;22;20007;-76
2022/10/22 10:02:00;;;;;;;55.30;23.85;;;;;;;;;;6270926;22;20007;-79
2022/10/22 10:04:25;;;;;;;54.45;23.20;;;;;;;;;;6272109;22;20296;-78
2022/10/22 10:06:54;;;;;;;64.65;25.63;;;;;;;;;;6273580;22;20042;-78
2022/10/22 10:09:21;;;;;;;59.63;25.42;;;;;;;;;;6271313;22;20011;-78
2022/10/22 10:12:18;;;;;;;60.67;26.35;;;;;;;;;;6276479;22;20505;-77
2022/10/22 10:14:47;;;;;;;53.75;25.45;;;;;;;;;;6246492;22;20098;-77
2022/10/22 10:17:37;;;;;;;55.78;24.95;;;;;;;;;;6246842;22;20406;-78
2022/10/22 10:20:09;;;;;;;51.40;25.30;;;;;;;;;;6233625;22;20370;-78
2022/10/22 10:22:43;;;;;;;57.13;25.65;;;;;;;;;;6246548;22;19996;-78
2022/10/22 10:25:27;;;;;;;53.97;24.58;;;;;;;;;;6245695;22;20081;-78
2022/10/22 10:27:58;;;;;;;53.75;23.33;;;;;;;;;;6273671;22;20382;-78
2022/10/22 10:30:24;;;;;;;47.63;22.85;;;;;;;;;;6273193;22;20026;-78
2022/10/22 10:33:08;;;;;;;46.17;22.77;;;;;;;;;;6247403;22;20004;-77
2022/10/22 10:35:51;;;;;;;53.25;23.35;;;;;;;;;;6275312;22;19999;-78
2022/10/22 10:38:40;;;;;;;58.97;24.80;;;;;;;;;;6275420;22;19999;-78
2022/10/22 10:41:12;;;;;;;55.65;26.85;;;;;;;;;;6263857;22;20446;-78
2022/10/22 10:43:50;;;;;;;58.75;24.95;;;;;;;;;;6284866;22;20077;-79
2022/10/22 10:46:17;;;;;;;55.38;23.75;;;;;;;;;;6303221;22;19992;-79
2022/10/22 10:48:57;;;;;;;49.80;23.10;;;;;;;;;;6300009;22;20007;-78
2022/10/22 10:51:47;;;;;;;52.35;23.80;;;;;;;;;;6297860;22;20003;-78
2022/10/22 10:54:59;;;;;;;50.50;23.92;;;;;;;;;;6295961;22;20003;-79
2022/10/22 10:57:48;;;;;;;52.55;22.00;;;;;;;;;;6277910;22;20027;-78
2022/10/22 11:00:16;;;;;;;40.80;21.20;;;;;;;;;;6277293;22;20011;-78
2022/10/22 11:02:55;;;;;;;50.60;21.05;;;;;;;;;;6250100;22;20174;-77
2022/10/22 11:05:29;;;;;;;39.50;20.65;;;;;;;;;;6274354;22;20004;-78
2022/10/22 11:08:06;;;;;;;43.88;20.55;;;;;;;;;;6275887;22;20476;-77
2022/10/22 11:10:39;;;;;;;48.08;20.10;;;;;;;;;;6274053;22;20000;-78
2022/10/22 11:13:33;;;;;;;48.15;20.40;;;;;;;;;;6274738;22;20003;-78
2022/10/22 11:16:16;;;;;;;45.53;19.83;;;;;;;;;;6274785;22;20011;-78
2022/10/22 11:19:02;;;;;;;43.03;19.02;;;;;;;;;;6275669;22;20000;-78
2022/10/22 11:21:33;;;;;;;40.65;17.88;;;;;;;;;;6274094;22;20000;-79
2022/10/22 11:24:26;;;;;;;35.72;18.60;;;;;;;;;;6275035;22;20003;-78
2022/10/22 11:27:29;;;;;;;42.17;19.55;;;;;;;;;;6274152;22;20008;-78
2022/10/22 11:30:03;;;;;;;45.80;18.52;;;;;;;;;;6275204;22;20342;-77
2022/10/22 11:32:29;;;;;;;44.33;19.50;;;;;;;;;;6275814;22;20011;-77
2022/10/22 11:35:11;;;;;;;38.45;19.45;;;;;;;;;;6222205;22;20073;-76
2022/10/22 11:37:37;;;;;;;39.08;18.67;;;;;;;;;;6273733;22;19999;-78
2022/10/22 11:40:19;;;;;;;36.03;18.23;;;;;;;;;;6226870;22;20007;-77
2022/10/22 11:42:47;;;;;;;42.90;18.08;;;;;;;;;;6306382;22;20052;-77
2022/10/22 11:45:12;;;;;;;36.00;17.98;;;;;;;;;;6278758;22;20009;-77
2022/10/22 11:48:04;;;;;;;40.47;18.23;;;;;;;;;;6306265;22;20485;-78
2022/10/22 11:51:09;;;;;;;48.45;20.52;;;;;;;;;;6306012;22;20392;-78
2022/10/22 11:53:35;;;;;;;39.33;19.48;;;;;;;;;;6282642;22;20031;-78
2022/10/22 11:56:08;;;;;;;40.63;18.77;;;;;;;;;;6306351;22;20007;-78
2022/10/22 11:58:38;;;;;;;43.80;18.65;;;;;;;;;;6278805;22;20411;-78
2022/10/22 12:01:06;;;;;;;37.78;18.13;;;;;;;;;;6306332;22;20311;-78
2022/10/22 12:03:32;;;;;;;38.90;19.08;;;;;;;;;;6305926;22;20004;-77
2022/10/22 12:06:14;;;;;;;46.88;19.13;;;;;;;;;;6305813;22;20017;-80
2022/10/22 12:08:56;;;;;;;47.40;19.25;;;;;;;;;;6305878;22;20049;-79
2022/10/22 12:11:34;;;;;;;51.78;19.80;;;;;;;;;;6280314;22;20441;-78
2022/10/22 12:14:28;;;;;;;43.53;19.25;;;;;;;;;;6306363;22;20338;-79
2022/10/22 12:17:13;;;;;;;55.67;20.48;;;;;;;;;;6278867;22;20019;-80
2022/10/22 12:19:41;;;;;;;44.58;19.88;;;;;;;;;;6279272;22;20003;-78
2022/10/22 12:22:06;;;;;;;44.83;21.33;;;;;;;;;;6253681;22;20011;-78
2022/10/22 12:24:52;;;;;;;43.33;21.73;;;;;;;;;;6306110;22;20086;-78
2022/10/22 12:27:35;;;;;;;48.08;21.67;;;;;;;;;;6278004;22;20061;-77
2022/10/22 12:30:02;;;;;;;46.13;21.25;;;;;;;;;;6278067;22;20406;-79
2022/10/22 12:32:36;;;;;;;44.10;19.77;;;;;;;;;;6305381;22;20342;-80
2022/10/22 12:35:14;;;;;;;39.25;18.20;;;;;;;;;;6252743;22;20003;-78
2022/10/22 12:37:39;;;;;;;37.28;17.75;;;;;;;;;;6279353;22;20003;-80
2022/10/22 12:40:20;;;;;;;38.63;18.70;;;;;;;;;;6305999;22;20014;-79
2022/10/22 12:42:53;;;;;;;46.30;19.63;;;;;;;;;;6279510;22;20027;-80
2022/10/22 12:45:19;;;;;;;44.70;18.98;;;;;;;;;;6278605;22;20059;-80
2022/10/22 12:47:49;;;;;;;38.88;18.70;;;;;;;;;;6253162;22;20103;-79
2022/10/22 12:50:18;;;;;;;;;;;;;;;;;;6254052;22;20010;-78
2022/10/22 12:52:44;;;;;;;38.60;17.30;;;;;;;;;;6278871;22;20245;-79
2022/10/22 12:55:17;;;;;;;37.30;17.08;;;;;;;;;;6253287;22;20030;-79
2022/10/22 12:57:44;;;;;;;42.83;16.38;;;;;;;;;;6278754;22;20022;-79
2022/10/22 13:00:24;;;;;;;31.45;16.00;;;;;;;;;;6278852;22;20018;-78
2022/10/22 13:02:49;;;;;;;42.75;16.65;;;;;;;;;;6253279;22;20315;-79
2022/10/22 13:05:18;;;;;;;36.10;14.73;;;;;;;;;;6278642;22;20004;-79
2022/10/22 13:07:47;;;;;;;31.27;15.30;;;;;;;;;;6305973;22;19999;-80
2022/10/22 13:10:26;;;;;;;35.88;14.82;;;;;;;;;;6253415;22;19999;-79
2022/10/22 13:12:56;;;;;;;33.85;15.48;;;;;;;;;;6252923;22;20066;-80
2022/10/22 13:15:41;;;;;;;47.38;19.10;;;;;;;;;;6305790;22;20060;-78
2022/10/22 13:18:21;;;;;;;42.03;16.17;;;;;;;;;;6277816;22;20007;-79
2022/10/22 13:20:59;;;;;;;46.25;16.73;;;;;;;;;;6252920;22;19995;-79
2022/10/22 13:23:25;;;;;;;44.55;15.57;;;;;;;;;;6279629;22;20004;-79
2022/10/22 13:26:03;;;;;;;48.40;20.10;;;;;;;;;;6278451;22;20079;-79
2022/10/22 13:28:29;;;;;;;35.70;15.85;;;;;;;;;;6305404;22;20042;-79
2022/10/22 13:31:17;;;;;;;36.42;16.52;;;;;;;;;;6252982;22;20036;-80
2022/10/22 13:33:44;;;;;;;33.33;16.77;;;;;;;;;;6256782;22;20003;-79
2022/10/22 13:36:18;;;;;;;37.90;16.85;;;;;;;;;;6278721;22;20037;-79
2022/10/22 13:38:44;;;;;;;44.45;17.98;;;;;;;;;;6279650;22;20003;-79
2022/10/22 13:41:24;;;;;;;43.45;18.25;;;;;;;;;;6279967;22;20053;-79
2022/10/22 13:43:49;;;;;;;37.70;16.77;;;;;;;;;;6280539;22;20022;-79
2022/10/22 13:46:15;;;;;;;46.33;18.60;;;;;;;;;;6279618;22;19999;-79
2022/10/22 13:48:40;;;;;;;40.95;17.80;;;;;;;;;;6280003;22;20007;-79
2022/10/22 13:51:17;;;;;;;50.08;19.05;;;;;;;;;;6307570;22;20153;-80
2022/10/22 13:53:44;;;;;;;43.97;18.63;;;;;;;;;;6255051;22;20372;-79
2022/10/22 13:56:15;;;;;;;38.30;18.13;;;;;;;;;;6254498;22;20022;-79
2022/10/22 13:58:42;;;;;;;39.92;17.77;;;;;;;;;;6279526;22;20011;-80
2022/10/22 14:01:19;;;;;;;41.38;17.33;;;;;;;;;;6255007;22;20006;-79
2022/10/22 14:03:45;;;;;;;34.38;17.63;;;;;;;;;;6256863;22;19999;-79
2022/10/22 14:06:14;;;;;;;38.45;17.40;;;;;;;;;;6254412;22;20014;-79
2022/10/22 14:08:58;;;;;;;43.65;18.83;;;;;;;;;;6254855;22;20052;-80
2022/10/22 14:11:26;;;;;;;45.97;19.40;;;;;;;;;;6258404;22;20010;-78
2022/10/22 14:13:51;;;;;;;42.38;19.38;;;;;;;;;;6280498;22;19995;-78
2022/10/22 14:16:18;;;;;;;50.83;18.98;;;;;;;;;;6279949;22;20010;-79
2022/10/22 14:18:44;;;;;;;61.53;28.38;;;;;;;;;;6254829;22;20056;-79
2022/10/22 14:21:09;;;;;;;57.35;23.77;;;;;;;;;;6280405;22;20042;-79
2022/10/22 14:23:35;;;;;;;57.63;26.45;;;;;;;;;;6280071;22;19995;-79
2022/10/22 14:26:01;;;;;;;48.40;23.98;;;;;;;;;;6307178;22;20069;-79
2022/10/22 14:28:26;;;;;;;56.00;24.40;;;;;;;;;;6279282;22;20038;-79
2022/10/22 14:30:52;;;;;;;52.33;23.33;;;;;;;;;;6307783;22;20003;-78
2022/10/22 14:33:19;;;;;;;48.13;21.45;;;;;;;;;;6229075;22;20006;-78
2022/10/22 14:35:44;;;;;;;50.90;19.40;;;;;;;;;;6279876;22;20076;-80
2022/10/22 14:38:10;;;;;;;49.53;21.65;;;;;;;;;;6279617;22;19999;-79
2022/10/22 14:40:37;;;;;;;52.10;19.75;;;;;;;;;;6306915;22;20074;-79
2022/10/22 14:43:03;;;;;;;55.67;24.40;;;;;;;;;;6280516;22;20394;-79
2022/10/22 14:45:28;;;;;;;60.15;25.70;;;;;;;;;;6279572;22;20007;-79
2022/10/22 14:47:54;;;;;;;49.15;23.70;;;;;;;;;;6279905;22;20092;-79
2022/10/22 14:50:20;;;;;;;54.83;23.52;;;;;;;;;;6279353;22;20010;-79
2022/10/22 14:52:45;;;;;;;52.05;22.60;;;;;;;;;;6306957;22;20002;-78
2022/10/22 14:55:11;;;;;;;66.75;25.92;;;;;;;;;;6254254;22;20007;-79
2022/10/22 14:57:40;;;;;;;62.58;23.48;;;;;;;;;;6279081;22;20003;-78